createdAt,value
2016-06-21T00:00:00.460Z,41.5
2016-06-21T00:01:00.454Z,41.6
2016-06-21T00:02:00.539Z,41.91
2016-06-21T00:03:00.419Z,42.57
2016-06-21T00:04:00.414Z,42.76
2016-06-21T00:04:59.741Z,42.86
2016-06-21T00:06:00.376Z,43.05
2016-06-21T00:06:59.716Z,43.15
2016-06-21T00:08:00.350Z,43.05
2016-06-21T00:09:00.342Z,43.24
2016-06-21T00:10:00.321Z,43.34
2016-06-21T00:11:00.323Z,43.44
2016-06-21T00:12:00.297Z,43.46
2016-06-21T00:13:00.287Z,43.27
2016-06-21T00:14:00.279Z,43.15
2016-06-21T00:15:00.262Z,43.63
2016-06-21T00:16:00.257Z,44.02
2016-06-21T00:17:00.239Z,43.92
2016-06-21T00:17:59.587Z,44.12
2016-06-21T00:19:00.212Z,44.4
2016-06-21T00:20:00.186Z,44.31
2016-06-21T00:21:00.187Z,44.7
2016-06-21T00:21:59.553Z,44.6
2016-06-21T00:23:00.151Z,44.6
2016-06-21T00:23:59.514Z,44.7
2016-06-21T00:24:59.499Z,44.02
2016-06-21T00:26:00.110Z,44.7
2016-06-21T00:27:00.109Z,44.79
2016-06-21T00:28:00.103Z,44.7
2016-06-21T00:29:00.068Z,44.89
2016-06-21T00:30:00.072Z,45.08
2016-06-21T00:31:00.045Z,45.74
2016-06-21T00:32:00.046Z,45.18
2016-06-21T00:32:59.383Z,45.37
2016-06-21T00:34:00.015Z,44.89
2016-06-21T00:34:59.998Z,44.7
2016-06-21T00:36:00.011Z,45.28
2016-06-21T00:36:59.978Z,45.18
2016-06-21T00:37:59.960Z,45.37
2016-06-21T00:38:59.948Z,45.57
2016-06-21T00:39:59.291Z,45.76
2016-06-21T00:40:59.918Z,45.37
2016-06-21T00:41:59.906Z,45.47
2016-06-21T00:42:59.898Z,45.86
2016-06-21T00:43:59.233Z,45.86
2016-06-21T00:44:59.876Z,45.86
2016-06-21T00:45:59.210Z,46.05
2016-06-21T00:46:59.838Z,45.76
2016-06-21T00:47:59.829Z,45.76
2016-06-21T00:48:59.818Z,45.95
2016-06-21T00:49:59.798Z,46.05
2016-06-21T00:50:59.785Z,46.05
2016-06-21T00:51:59.768Z,45.86
2016-06-21T00:52:59.763Z,45.66
2016-06-21T00:53:59.751Z,46.05
2016-06-21T00:54:59.732Z,46.05
2016-06-21T00:55:59.083Z,46.05
2016-06-21T00:56:59.069Z,46.44
2016-06-21T00:57:59.699Z,46.83
2016-06-21T00:58:59.034Z,46.63
2016-06-21T00:59:59.675Z,46.15
2016-06-21T01:00:59.647Z,46.15
2016-06-21T01:01:59.636Z,45.95
2016-06-21T01:02:59.624Z,46.05
2016-06-21T01:03:59.611Z,46.73
2016-06-21T01:04:59.602Z,46.25
2016-06-21T01:05:59.590Z,46.53
2016-06-21T01:06:59.569Z,46.83
2016-06-21T01:07:59.573Z,46.83
2016-06-21T01:08:59.559Z,46.63
2016-06-21T01:09:59.539Z,46.44
2016-06-21T01:10:58.910Z,46.83
2016-06-21T01:11:59.515Z,46.63
2016-06-21T01:12:59.492Z,46.92
2016-06-21T01:13:59.474Z,46.83
2016-06-21T01:14:58.830Z,47.02
2016-06-21T01:15:59.457Z,46.63
2016-06-21T01:16:59.450Z,46.92
2016-06-21T01:17:59.423Z,47.31
2016-06-21T01:18:58.782Z,46.92
2016-06-21T01:19:58.767Z,46.83
2016-06-21T01:20:59.384Z,46.73
2016-06-21T01:21:59.384Z,46.73
2016-06-21T01:22:58.724Z,47.11
2016-06-21T01:23:59.350Z,47.11
2016-06-21T01:24:58.694Z,47.31
2016-06-21T01:25:59.318Z,47.5
2016-06-21T01:26:59.314Z,47.79
2016-06-21T01:27:59.301Z,47.67
2016-06-21T01:28:59.274Z,47.6
2016-06-21T01:29:59.268Z,47.31
2016-06-21T01:30:59.258Z,47.69
2016-06-21T01:31:59.242Z,47.89
2016-06-21T01:32:59.226Z,47.86
2016-06-21T01:33:59.203Z,47.6
2016-06-21T01:34:59.206Z,47.58
2016-06-21T01:35:59.195Z,48.74
2016-06-21T01:36:59.183Z,48.16
2016-06-21T01:37:58.516Z,47.99
2016-06-21T01:38:59.156Z,47.77
2016-06-21T01:39:59.140Z,48.54
2016-06-21T01:40:59.125Z,47.77
2016-06-21T01:41:59.115Z,47.69
2016-06-21T01:42:59.101Z,47.6
2016-06-21T01:43:58.441Z,47.69
2016-06-21T01:44:59.062Z,47.79
2016-06-21T01:45:59.050Z,47.69
2016-06-21T01:46:59.036Z,47.79
2016-06-21T01:47:59.031Z,48.74
2016-06-21T01:48:59.015Z,48.64
2016-06-21T01:49:59.013Z,48.25
2016-06-21T01:50:58.989Z,47.77
2016-06-21T01:51:58.966Z,47.99
2016-06-21T01:52:58.960Z,48.06
2016-06-21T01:53:58.953Z,48.16
2016-06-21T01:54:58.954Z,48.06
2016-06-21T01:55:58.923Z,47.77
2016-06-21T01:56:58.914Z,47.99
2016-06-21T01:57:58.258Z,47.86
2016-06-21T01:58:58.874Z,47.77
2016-06-21T01:59:58.866Z,47.77
2016-06-21T02:00:58.216Z,47.5
2016-06-21T02:01:58.849Z,47.41
2016-06-21T02:02:58.835Z,47.41
2016-06-21T02:03:58.814Z,47.6
2016-06-21T02:04:58.801Z,47.79
2016-06-21T02:05:58.787Z,47.58
2016-06-21T02:06:58.129Z,47.48
2016-06-21T02:07:58.748Z,47.28
2016-06-21T02:08:58.745Z,47.38
2016-06-21T02:09:58.745Z,47.38
2016-06-21T02:10:58.730Z,46.61
2016-06-21T02:11:58.072Z,46.8
2016-06-21T02:12:58.058Z,47
2016-06-21T02:13:58.041Z,46.61
2016-06-21T02:14:58.029Z,46.51
2016-06-21T02:15:58.016Z,46.15
2016-06-21T02:16:58.636Z,45.95
2016-06-21T02:17:58.643Z,46.34
2016-06-21T02:18:58.640Z,46.63
2016-06-21T02:19:58.609Z,46.42
2016-06-21T02:20:58.590Z,45.37
2016-06-21T02:21:58.579Z,46.25
2016-06-21T02:22:58.553Z,46.03
2016-06-21T02:23:58.551Z,45.76
2016-06-21T02:24:57.897Z,45.57
2016-06-21T02:25:57.873Z,45.93
2016-06-21T02:26:58.514Z,45.83
2016-06-21T02:27:58.505Z,45.76
2016-06-21T02:28:58.474Z,45.86
2016-06-21T02:29:58.475Z,45.37
2016-06-21T02:30:58.461Z,45.57
2016-06-21T02:31:58.438Z,45.37
2016-06-21T02:32:58.424Z,45.86
2016-06-21T02:33:57.801Z,45.66
2016-06-21T02:34:58.400Z,45.28
2016-06-21T02:35:58.379Z,45.47
2016-06-21T02:36:58.377Z,45.18
2016-06-21T02:37:58.358Z,44.98
2016-06-21T02:38:57.723Z,45.57
2016-06-21T02:39:58.338Z,45.66
2016-06-21T02:40:57.687Z,45.57
2016-06-21T02:41:57.665Z,45.86
2016-06-21T02:42:58.307Z,45.95
2016-06-21T02:43:58.290Z,45.86
2016-06-21T02:44:57.629Z,45.76
2016-06-21T02:45:58.247Z,45.66
2016-06-21T02:46:58.247Z,46.15
2016-06-21T02:47:58.228Z,45.47
2016-06-21T02:48:58.227Z,45.18
2016-06-21T02:49:58.201Z,45.47
2016-06-21T02:50:58.192Z,45.47
2016-06-21T02:51:58.174Z,45.86
2016-06-21T02:52:58.163Z,46.15
2016-06-21T02:53:58.148Z,46.34
2016-06-21T02:54:58.134Z,46.34
2016-06-21T02:55:58.128Z,46.15
2016-06-21T02:56:58.112Z,45.95
2016-06-21T02:57:57.472Z,46.05
2016-06-21T02:58:57.437Z,46.34
2016-06-21T02:59:57.440Z,46.63
2016-06-21T03:00:57.443Z,46.44
2016-06-21T03:01:58.044Z,46.73
2016-06-21T03:02:58.036Z,46.92
2016-06-21T03:03:58.008Z,47.09
2016-06-21T03:04:57.359Z,46.92
2016-06-21T03:05:57.980Z,47.11
2016-06-21T03:06:57.988Z,46.8
2016-06-21T03:07:57.961Z,46.73
2016-06-21T03:08:57.945Z,47.86
2016-06-21T03:09:57.939Z,47.86
2016-06-21T03:10:57.920Z,47.41
2016-06-21T03:11:57.279Z,47.41
2016-06-21T03:12:57.899Z,47.69
2016-06-21T03:13:57.887Z,47.67
2016-06-21T03:14:57.879Z,48.25
2016-06-21T03:15:57.865Z,47.58
2016-06-21T03:16:57.199Z,47.99
2016-06-21T03:17:57.836Z,47.6
2016-06-21T03:18:57.818Z,48.25
2016-06-21T03:19:57.814Z,48.16
2016-06-21T03:20:57.164Z,47.41
2016-06-21T03:21:57.133Z,47.69
2016-06-21T03:22:57.770Z,47.89
2016-06-21T03:23:57.110Z,47.69
2016-06-21T03:24:57.110Z,47.79
2016-06-21T03:25:57.717Z,47.99
2016-06-21T03:26:57.701Z,48.16
2016-06-21T03:27:57.691Z,48.44
2016-06-21T03:28:57.695Z,47.86
2016-06-21T03:29:57.676Z,47.86
2016-06-21T03:30:57.653Z,47.77
2016-06-21T03:31:57.640Z,47.69
2016-06-21T03:32:57.629Z,48.08
2016-06-21T03:33:57.620Z,47.69
2016-06-21T03:34:57.606Z,47.79
2016-06-21T03:35:57.591Z,47.99
2016-06-21T03:36:57.573Z,47.41
2016-06-21T03:37:57.579Z,47.69
2016-06-21T03:38:57.547Z,47.69
2016-06-21T03:39:57.527Z,47.69
2016-06-21T03:40:57.528Z,47.41
2016-06-21T03:41:57.507Z,47.89
2016-06-21T03:42:57.500Z,47.77
2016-06-21T03:43:57.481Z,48.18
2016-06-21T03:44:57.467Z,48.16
2016-06-21T03:45:57.460Z,48.25
2016-06-21T03:46:57.429Z,48.18
2016-06-21T03:47:57.432Z,47.6
2016-06-21T03:48:57.413Z,48.95
2016-06-21T03:49:57.398Z,48.57
2016-06-21T03:50:57.385Z,48.18
2016-06-21T03:51:56.734Z,48.08
2016-06-21T03:52:57.355Z,48.18
2016-06-21T03:53:57.342Z,47.89
2016-06-21T03:54:57.347Z,48.08
2016-06-21T03:55:57.321Z,48.08
2016-06-21T03:56:57.311Z,49.12
2016-06-21T03:57:57.293Z,48.95
2016-06-21T03:58:57.281Z,48.66
2016-06-21T03:59:56.631Z,48.57
2016-06-21T04:00:56.612Z,48.57
2016-06-21T04:01:57.243Z,48.76
2016-06-21T04:02:57.230Z,48.18
2016-06-21T04:03:56.580Z,48.86
2016-06-21T04:04:57.204Z,48.76
2016-06-21T04:05:57.179Z,48.74
2016-06-21T04:06:57.177Z,48.57
2016-06-21T04:07:57.167Z,48.64
2016-06-21T04:08:57.150Z,48.35
2016-06-21T04:09:57.139Z,48.16
2016-06-21T04:10:57.122Z,48.08
2016-06-21T04:11:57.105Z,48.08
2016-06-21T04:12:57.092Z,47.99
2016-06-21T04:13:57.081Z,48.18
2016-06-21T04:14:56.422Z,47.89
2016-06-21T04:15:56.413Z,48.18
2016-06-21T04:16:57.032Z,47.89
2016-06-21T04:17:57.021Z,47.6
2016-06-21T04:18:57.011Z,47.99
2016-06-21T04:19:57.006Z,48.47
2016-06-21T04:20:56.360Z,49.22
2016-06-21T04:21:56.327Z,49.02
2016-06-21T04:22:56.968Z,48.93
2016-06-21T04:23:56.942Z,48.93
2016-06-21T04:24:56.935Z,48.93
2016-06-21T04:25:56.912Z,49.22
2016-06-21T04:26:56.261Z,49.12
2016-06-21T04:27:56.890Z,49.22
2016-06-21T04:28:56.878Z,49.02
2016-06-21T04:29:56.869Z,49.02
2016-06-21T04:30:56.852Z,49.22
2016-06-21T04:31:56.198Z,49.32
2016-06-21T04:32:56.823Z,49.32
2016-06-21T04:33:56.816Z,49.22
2016-06-21T04:34:56.796Z,49.34
2016-06-21T04:35:56.793Z,49.24
2016-06-21T04:36:56.768Z,49.22
2016-06-21T04:37:56.760Z,49.34
2016-06-21T04:38:56.749Z,49.7
2016-06-21T04:39:56.726Z,49.22
2016-06-21T04:40:56.715Z,49.12
2016-06-21T04:41:56.708Z,49.7
2016-06-21T04:42:56.046Z,49.51
2016-06-21T04:43:56.671Z,49.51
2016-06-21T04:44:56.657Z,49.12
2016-06-21T04:45:56.006Z,49.02
2016-06-21T04:46:56.636Z,49.32
2016-06-21T04:47:56.623Z,48.93
2016-06-21T04:48:56.609Z,49.7
2016-06-21T04:49:56.599Z,49.6
2016-06-21T04:50:55.947Z,49.6
2016-06-21T04:51:55.930Z,49.51
2016-06-21T04:52:56.552Z,50.18
2016-06-21T04:53:56.542Z,49.7
2016-06-21T04:54:55.892Z,49.8
2016-06-21T04:55:55.873Z,50.18
2016-06-21T04:56:55.866Z,49.99
2016-06-21T04:57:56.501Z,50.57
2016-06-21T04:58:56.477Z,51.83
2016-06-21T04:59:55.822Z,54.05
2016-06-21T05:00:55.802Z,52.92
2016-06-21T05:01:56.431Z,53.09
2016-06-21T05:02:56.422Z,54.17
2016-06-21T05:03:56.406Z,54.17
2016-06-21T05:04:55.760Z,54.95
2016-06-21T05:05:56.377Z,55.63
2016-06-21T05:06:56.365Z,56.98
2016-06-21T05:07:55.710Z,58.4
2016-06-21T05:08:55.708Z,58.89
2016-06-21T05:09:56.326Z,58.6
2016-06-21T05:10:56.316Z,59.08
2016-06-21T05:11:55.654Z,59.56
2016-06-21T05:12:56.294Z,59.95
2016-06-21T05:13:56.266Z,60.34
2016-06-21T05:14:55.621Z,60.92
2016-06-21T05:15:56.252Z,61.5
2016-06-21T05:16:56.229Z,61.5
2016-06-21T05:17:56.218Z,61.69
2016-06-21T05:18:56.200Z,62.08
2016-06-21T05:19:56.187Z,62.85
2016-06-21T05:20:56.181Z,63.34
2016-06-21T05:21:56.161Z,63.05
2016-06-21T05:22:55.511Z,63.92
2016-06-21T05:23:55.494Z,63.02
2016-06-21T05:24:56.126Z,63.14
2016-06-21T05:25:55.470Z,62.05
2016-06-21T05:26:55.459Z,61.86
2016-06-21T05:27:55.446Z,61.18
2016-06-21T05:28:55.425Z,61.66
2016-06-21T05:29:55.433Z,61.57
2016-06-21T05:30:56.027Z,61.83
2016-06-21T05:31:56.037Z,62.5
2016-06-21T05:32:55.379Z,62.4
2016-06-21T05:33:55.997Z,61.92
2016-06-21T05:34:55.345Z,62.5
2016-06-21T05:35:55.334Z,62.7
2016-06-21T05:36:55.966Z,62.6
2016-06-21T05:37:55.943Z,62.89
2016-06-21T05:38:55.945Z,62.89
2016-06-21T05:39:55.915Z,62.7
2016-06-21T05:40:55.897Z,63.08
2016-06-21T05:41:55.248Z,62.7
2016-06-21T05:42:55.869Z,63.37
2016-06-21T05:43:55.859Z,63.66
2016-06-21T05:44:55.851Z,63.76
2016-06-21T05:45:55.830Z,63.28
2016-06-21T05:46:55.174Z,64.05
2016-06-21T05:47:55.813Z,64.01
2016-06-21T05:48:55.788Z,63.92
2016-06-21T05:49:55.779Z,62.95
2016-06-21T05:50:55.761Z,63.18
2016-06-21T05:51:55.758Z,62.98
2016-06-21T05:52:55.735Z,62.7
2016-06-21T05:53:55.078Z,62.7
2016-06-21T05:54:55.702Z,62.89
2016-06-21T05:55:55.685Z,62.89
2016-06-21T05:56:55.678Z,62.4
2016-06-21T05:57:55.667Z,62.6
2016-06-21T05:58:55.018Z,62.6
2016-06-21T05:59:55.635Z,62.31
2016-06-21T06:00:54.988Z,62.12
2016-06-21T06:01:55.606Z,62.6
2016-06-21T06:02:55.594Z,62.79
2016-06-21T06:03:55.593Z,62.5
2016-06-21T06:04:55.567Z,62.7
2016-06-21T06:05:55.561Z,62.98
2016-06-21T06:06:55.547Z,62.89
2016-06-21T06:07:55.535Z,62.31
2016-06-21T06:08:55.515Z,62.79
2016-06-21T06:09:54.866Z,62.5
2016-06-21T06:10:55.487Z,61.63
2016-06-21T06:11:55.468Z,61.92
2016-06-21T06:12:55.459Z,61.73
2016-06-21T06:13:54.809Z,60.96
2016-06-21T06:14:55.428Z,60.47
2016-06-21T06:15:55.411Z,60.38
2016-06-21T06:16:55.404Z,59.8
2016-06-21T06:17:55.391Z,59.7
2016-06-21T06:18:55.390Z,59.7
2016-06-21T06:19:55.361Z,60.57
2016-06-21T06:20:55.370Z,59.8
2016-06-21T06:21:55.333Z,60.67
2016-06-21T06:22:55.315Z,60.44
2016-06-21T06:23:55.317Z,59.89
2016-06-21T06:24:54.651Z,59.99
2016-06-21T06:25:55.273Z,59.41
2016-06-21T06:26:55.266Z,60.47
2016-06-21T06:27:55.264Z,61.22
2016-06-21T06:28:54.600Z,60.64
2016-06-21T06:29:55.218Z,61.51
2016-06-21T06:30:55.217Z,60.73
2016-06-21T06:31:54.555Z,60.64
2016-06-21T06:32:55.186Z,60.67
2016-06-21T06:33:55.169Z,59.51
2016-06-21T06:34:55.166Z,60.76
2016-06-21T06:35:55.145Z,60.47
2016-06-21T06:36:55.126Z,61.25
2016-06-21T06:37:55.142Z,60.57
2016-06-21T06:38:55.104Z,60.38
2016-06-21T06:39:55.080Z,60.38
2016-06-21T06:40:55.075Z,60.47
2016-06-21T06:41:55.055Z,61.25
2016-06-21T06:42:55.051Z,61.15
2016-06-21T06:43:54.389Z,60.76
2016-06-21T06:44:54.386Z,60.76
2016-06-21T06:45:55.005Z,61.44
2016-06-21T06:46:55.010Z,61.44
2016-06-21T06:47:54.344Z,61.15
2016-06-21T06:48:54.974Z,61.15
2016-06-21T06:49:54.314Z,60.86
2016-06-21T06:50:54.939Z,60.67
2016-06-21T06:51:54.922Z,60.57
2016-06-21T06:52:54.267Z,61.34
2016-06-21T06:53:54.909Z,60.76
2016-06-21T06:54:54.877Z,61.05
2016-06-21T06:55:54.867Z,61.63
2016-06-21T06:56:54.858Z,61.05
2016-06-21T06:57:54.844Z,61.34
2016-06-21T06:58:54.824Z,61.44
2016-06-21T06:59:54.172Z,61.25
2016-06-21T07:00:54.794Z,61.63
2016-06-21T07:01:54.783Z,61.54
2016-06-21T07:02:54.784Z,61.54
2016-06-21T07:03:54.121Z,62.5
2016-06-21T07:04:54.749Z,62.31
2016-06-21T07:05:54.744Z,61.92
2016-06-21T07:06:54.723Z,62.02
2016-06-21T07:07:54.727Z,62.98
2016-06-21T07:08:54.689Z,62.89
2016-06-21T07:09:54.676Z,62.98
2016-06-21T07:10:54.665Z,62.6
2016-06-21T07:11:54.648Z,63.28
2016-06-21T07:12:54.632Z,62.7
2016-06-21T07:13:54.616Z,62.31
2016-06-21T07:14:54.607Z,62.12
2016-06-21T07:15:54.603Z,62.15
2016-06-21T07:16:54.576Z,62.15
2016-06-21T07:17:54.557Z,62.05
2016-06-21T07:18:54.562Z,62.63
2016-06-21T07:19:54.537Z,62.89
2016-06-21T07:20:54.528Z,62.5
2016-06-21T07:21:54.516Z,62.82
2016-06-21T07:22:54.497Z,62.92
2016-06-21T07:23:54.635Z,63.18
2016-06-21T07:24:54.469Z,63.18
2016-06-21T07:25:53.811Z,63.08
2016-06-21T07:26:54.437Z,63.08
2016-06-21T07:27:53.791Z,62.89
2016-06-21T07:28:54.520Z,62.89
2016-06-21T07:29:54.407Z,62.6
2016-06-21T07:30:54.398Z,62.79
2016-06-21T07:31:54.373Z,62.31
2016-06-21T07:32:54.359Z,63.02
2016-06-21T07:33:53.711Z,64.18
2016-06-21T07:34:54.330Z,64.27
2016-06-21T07:35:54.323Z,64.85
2016-06-21T07:36:53.672Z,65.14
2016-06-21T07:37:54.290Z,65.05
2016-06-21T07:38:54.279Z,64.85
2016-06-21T07:39:53.625Z,64.27
2016-06-21T07:40:54.249Z,64.11
2016-06-21T07:41:54.248Z,64.01
2016-06-21T07:43:54.222Z,63.82
2016-06-21T07:44:54.198Z,63.34
2016-06-21T07:45:54.192Z,63.82
2016-06-21T07:46:53.531Z,64.01
2016-06-21T07:47:53.508Z,63.82
2016-06-21T07:48:54.138Z,62.85
2016-06-21T07:49:54.131Z,63.24
2016-06-21T07:50:54.116Z,63.34
2016-06-21T07:51:53.448Z,63.08
2016-06-21T07:52:53.445Z,62.88
2016-06-21T07:53:54.076Z,62.98
2016-06-21T07:54:54.059Z,62.69
2016-06-21T07:55:54.046Z,62.59
2016-06-21T07:56:54.042Z,62.11
2016-06-21T07:57:54.016Z,61.92
2016-06-21T07:58:53.371Z,61.72
2016-06-21T07:59:53.996Z,61.76
2016-06-21T08:00:53.981Z,61.27
2016-06-21T08:01:53.958Z,61.56
2016-06-21T08:02:53.964Z,61.18
2016-06-21T08:03:53.303Z,61.27
2016-06-21T08:04:53.289Z,61.36
2016-06-21T08:05:53.920Z,61.46
2016-06-21T08:06:53.910Z,61.85
2016-06-21T08:07:53.883Z,61.76
2016-06-21T08:08:53.866Z,61.56
2016-06-21T08:09:53.854Z,60.98
2016-06-21T08:10:53.855Z,60.78
2016-06-21T08:11:53.828Z,60.78
2016-06-21T08:12:53.178Z,61.27
2016-06-21T08:13:53.798Z,60.69
2016-06-21T08:14:53.824Z,61.36
2016-06-21T08:15:53.133Z,61.11
2016-06-21T08:16:53.764Z,60.82
2016-06-21T08:17:53.772Z,60.82
2016-06-21T08:18:53.735Z,61.3
2016-06-21T08:19:53.084Z,60.33
2016-06-21T08:20:53.715Z,60.72
2016-06-21T08:21:53.707Z,60.04
2016-06-21T08:22:53.679Z,60.04
2016-06-21T08:23:53.686Z,60.04
2016-06-21T08:24:53.037Z,59.36
2016-06-21T08:25:53.678Z,59.46
2016-06-21T08:26:53.636Z,59.1
2016-06-21T08:27:53.654Z,59.46
2016-06-21T08:28:53.616Z,59.3
2016-06-21T08:29:53.592Z,59.3
2016-06-21T08:30:53.584Z,59.27
2016-06-21T08:31:52.940Z,60.24
2016-06-21T08:32:53.559Z,59.46
2016-06-21T08:33:53.546Z,59.36
2016-06-21T08:34:53.538Z,59.27
2016-06-21T08:35:52.880Z,59.49
2016-06-21T08:36:53.507Z,58.98
2016-06-21T08:37:52.855Z,59.46
2016-06-21T08:38:53.477Z,59.39
2016-06-21T08:39:52.835Z,59.07
2016-06-21T08:40:53.447Z,59.1
2016-06-21T08:41:53.437Z,58.23
2016-06-21T08:42:52.792Z,58.3
2016-06-21T08:43:53.430Z,58.52
2016-06-21T08:44:53.419Z,58.52
2016-06-21T08:45:53.396Z,58.14
2016-06-21T08:46:53.415Z,58.62
2016-06-21T08:47:52.728Z,57.75
2016-06-21T08:48:53.358Z,57.48
2016-06-21T08:49:52.701Z,57.29
2016-06-21T08:50:53.372Z,56.9
2016-06-21T08:51:53.318Z,56.87
2016-06-21T08:52:53.306Z,57.94
2016-06-21T08:53:53.295Z,57.26
2016-06-21T08:54:52.643Z,56.87
2016-06-21T08:55:53.270Z,56.68
2016-06-21T08:56:52.612Z,56.81
2016-06-21T08:57:52.606Z,57
2016-06-21T08:58:53.439Z,57.39
2016-06-21T08:59:53.224Z,56.71
2016-06-21T09:00:53.337Z,56.23
2016-06-21T09:01:53.188Z,54.86
2016-06-21T09:02:53.213Z,54.09
2016-06-21T09:03:53.169Z,55.44
2016-06-21T09:04:53.287Z,54.48
2016-06-21T09:05:52.499Z,54.38
2016-06-21T09:06:52.560Z,53.8
2016-06-21T09:07:52.534Z,54.19
2016-06-21T09:08:53.169Z,53.22
2016-06-21T09:09:53.093Z,51.96
2016-06-21T09:10:52.437Z,51.86
2016-06-21T09:11:52.447Z,51.4
2016-06-21T09:12:53.081Z,51.98
2016-06-21T09:13:53.056Z,51.69
2016-06-21T09:14:52.407Z,51.59
2016-06-21T09:15:53.014Z,50.92
2016-06-21T09:16:53.011Z,51.5
2016-06-21T09:17:52.983Z,51.59
2016-06-21T09:18:52.977Z,51.11
2016-06-21T09:19:53.271Z,50.36
2016-06-21T09:20:52.955Z,50.26
2016-06-21T09:21:52.946Z,50.36
2016-06-21T09:22:53.197Z,50.16
2016-06-21T09:23:52.282Z,49.97
2016-06-21T09:24:52.998Z,49.97
2016-06-21T09:25:52.898Z,49.29
2016-06-21T09:26:52.902Z,49.77
2016-06-21T09:27:52.878Z,49.51
2016-06-21T09:28:52.940Z,49.1
2016-06-21T09:29:53.231Z,49
2016-06-21T09:30:52.193Z,47.93
2016-06-21T09:31:52.835Z,48.13
2016-06-21T09:32:52.826Z,48.61
2016-06-21T09:33:52.799Z,48.22
2016-06-21T09:34:52.811Z,47.57
2016-06-21T09:35:52.134Z,47.38
2016-06-21T09:36:52.786Z,47.76
2016-06-21T09:37:52.755Z,47.57
2016-06-21T09:38:52.739Z,49
2016-06-21T09:39:52.739Z,49.19
2016-06-21T09:40:52.077Z,48.71
2016-06-21T09:41:52.166Z,49.29
2016-06-21T09:42:53.026Z,49
2016-06-21T09:43:52.723Z,49.49
2016-06-21T09:44:52.676Z,48.8
2016-06-21T09:45:52.654Z,49
2016-06-21T09:46:52.011Z,49.77
2016-06-21T09:47:52.014Z,49.19
2016-06-21T09:48:52.624Z,49.39
2016-06-21T09:49:52.614Z,49.29
2016-06-21T09:50:52.595Z,49.68
2016-06-21T09:51:52.596Z,49.66
2016-06-21T09:52:53.198Z,49.68
2016-06-21T09:53:52.574Z,49.68
2016-06-21T09:54:51.921Z,49.32
2016-06-21T09:55:52.531Z,49.9
2016-06-21T09:56:52.576Z,49.77
2016-06-21T09:57:53.466Z,49.9
2016-06-21T09:58:53.107Z,49.9
2016-06-21T09:59:52.498Z,49.8
2016-06-21T10:00:52.678Z,49.71
2016-06-21T10:01:52.534Z,49.61
2016-06-21T10:02:52.461Z,49.9
2016-06-21T10:03:52.443Z,49.8
2016-06-21T10:04:52.437Z,49.32
2016-06-21T10:05:52.424Z,49.51
2016-06-21T10:06:52.409Z,49.41
2016-06-21T10:07:52.390Z,49.61
2016-06-21T10:08:52.417Z,49.8
2016-06-21T10:09:52.385Z,49.9
2016-06-21T10:10:52.372Z,49.49
2016-06-21T10:11:52.350Z,48.93
2016-06-21T10:12:51.691Z,49.02
2016-06-21T10:13:52.355Z,48.44
2016-06-21T10:14:52.346Z,49.02
2016-06-21T10:15:51.655Z,48.44
2016-06-21T10:16:52.292Z,48.08
2016-06-21T10:17:52.289Z,47.96
2016-06-21T10:18:51.640Z,47.76
2016-06-21T10:19:51.610Z,48.08
2016-06-21T10:20:52.245Z,47.11
2016-06-21T10:21:52.236Z,47.11
2016-06-21T10:22:52.223Z,46.81
2016-06-21T10:23:52.215Z,45.94
2016-06-21T10:24:52.209Z,46.42
2016-06-21T10:25:52.205Z,46.33
2016-06-21T10:26:52.187Z,45.67
2016-06-21T10:27:52.280Z,44.31
2016-06-21T10:28:52.160Z,44.87
2016-06-21T10:29:52.149Z,44
2016-06-21T10:30:52.137Z,44.19
2016-06-21T10:31:52.139Z,43.54
2016-06-21T10:32:52.101Z,43.32
2016-06-21T10:33:52.103Z,43.15
2016-06-21T10:34:52.071Z,41.78
2016-06-21T10:35:52.071Z,41.3
2016-06-21T10:36:52.078Z,40.62
2016-06-21T10:37:52.055Z,40.33
2016-06-21T10:38:52.040Z,39.75
2016-06-21T10:39:52.050Z,39.47
2016-06-21T10:40:52.018Z,40.13
2016-06-21T10:41:52.009Z,40.23
2016-06-21T10:42:52.017Z,39.28
2016-06-21T10:43:51.379Z,38.79
2016-06-21T10:44:51.997Z,39.08
2016-06-21T10:45:51.953Z,38.87
2016-06-21T10:46:51.311Z,38.77
2016-06-21T10:47:51.306Z,37.92
2016-06-21T10:48:51.946Z,37.92
2016-06-21T10:49:51.951Z,37.82
2016-06-21T10:50:51.927Z,37.26
2016-06-21T10:51:51.894Z,36.96
2016-06-21T10:52:51.282Z,36.87
2016-06-21T10:53:51.883Z,37.45
2016-06-21T10:54:51.224Z,36.57
2016-06-21T10:55:51.208Z,36.57
2016-06-21T10:56:51.851Z,36.87
2016-06-21T10:57:51.835Z,37.16
2016-06-21T10:58:51.833Z,36.96
2016-06-21T10:59:51.849Z,36.59
2016-06-21T11:00:51.505Z,36
2016-06-21T11:01:51.784Z,36.59
2016-06-21T11:02:51.790Z,36.3
2016-06-21T11:03:51.134Z,35.93
2016-06-21T11:04:51.117Z,35.93
2016-06-21T11:05:51.759Z,35.63
2016-06-21T11:06:51.094Z,36.1
2016-06-21T11:07:51.724Z,35.83
2016-06-21T11:08:51.716Z,35.16
2016-06-21T11:09:51.715Z,34.4
2016-06-21T11:10:51.693Z,34.5
2016-06-21T11:11:51.040Z,34.59
2016-06-21T11:12:51.665Z,34.52
2016-06-21T11:13:51.668Z,35.08
2016-06-21T11:14:51.662Z,34.52
2016-06-21T11:15:51.647Z,34.32
2016-06-21T11:16:51.633Z,34.52
2016-06-21T11:17:51.617Z,34.71
2016-06-21T11:18:51.002Z,34.61
2016-06-21T11:19:51.605Z,34.22
2016-06-21T11:20:50.974Z,34.14
2016-06-21T11:21:51.590Z,33.95
2016-06-21T11:22:51.569Z,33.83
2016-06-21T11:23:51.562Z,33.36
2016-06-21T11:24:51.558Z,34.24
2016-06-21T11:25:51.547Z,33.46
2016-06-21T11:26:51.611Z,33.07
2016-06-21T11:27:51.530Z,33.17
2016-06-21T11:28:51.533Z,33.17
2016-06-21T11:29:51.521Z,32.58
2016-06-21T11:30:51.497Z,32.58
2016-06-21T11:31:51.480Z,32.97
2016-06-21T11:32:51.473Z,32.97
2016-06-21T11:33:51.463Z,31.99
2016-06-21T11:34:51.454Z,32.11
2016-06-21T11:35:50.802Z,31.6
2016-06-21T11:36:51.441Z,31.64
2016-06-21T11:37:51.446Z,31.72
2016-06-21T11:38:51.422Z,31.43
2016-06-21T11:39:51.417Z,31.1
2016-06-21T11:40:51.398Z,30.73
2016-06-21T11:41:51.400Z,31.13
2016-06-21T11:42:51.389Z,29.95
2016-06-21T11:43:51.369Z,30.16
2016-06-21T11:44:50.722Z,30.63
2016-06-21T11:45:51.373Z,29.38
2016-06-21T11:46:51.378Z,28.72
2016-06-21T11:47:51.362Z,29
2016-06-21T11:48:51.351Z,28.82
2016-06-21T11:49:51.628Z,28.15
2016-06-21T11:50:51.349Z,28.05
2016-06-21T11:51:50.706Z,27.48
2016-06-21T11:52:51.333Z,26.9
2016-06-21T11:53:51.561Z,27
2016-06-21T11:54:51.334Z,26.42
2016-06-21T11:55:51.336Z,26.53
2016-06-21T11:56:51.339Z,26.32
2016-06-21T11:57:51.326Z,26.43
2016-06-21T11:58:51.323Z,25.94
2016-06-21T11:59:51.348Z,25.85
2016-06-21T12:00:51.323Z,24.87
2016-06-21T12:01:51.326Z,24.7
2016-06-21T12:02:51.321Z,24.69
2016-06-21T12:03:51.315Z,24.9
2016-06-21T12:04:50.682Z,25.27
2016-06-21T12:05:51.323Z,25.09
2016-06-21T12:06:51.314Z,23.74
2016-06-21T12:07:51.323Z,24.22
2016-06-21T12:08:50.680Z,24.51
2016-06-21T12:09:50.684Z,24.51
2016-06-21T12:10:51.313Z,23.83
2016-06-21T12:11:51.318Z,23.74
2016-06-21T12:12:50.670Z,23.93
2016-06-21T12:13:51.321Z,23.74
2016-06-21T12:14:51.322Z,24.32
2016-06-21T12:15:51.314Z,23.45
2016-06-21T12:16:51.318Z,23.57
2016-06-21T12:17:51.312Z,22.39
2016-06-21T12:18:50.683Z,22.99
2016-06-21T12:19:51.336Z,22.67
2016-06-21T12:20:50.683Z,22.78
2016-06-21T12:21:51.318Z,23.85
2016-06-21T12:22:50.674Z,23.16
2016-06-21T12:23:51.324Z,23.18
2016-06-21T12:24:51.315Z,22.49
2016-06-21T12:25:51.317Z,21.72
2016-06-21T12:26:51.317Z,22.62
2016-06-21T12:27:51.320Z,21.62
2016-06-21T12:28:50.672Z,22.52
2016-06-21T12:29:51.326Z,23.17
2016-06-21T12:30:51.325Z,23.46
2016-06-21T12:31:51.350Z,23.55
2016-06-21T12:32:51.335Z,23.27
2016-06-21T12:33:51.343Z,23.07
2016-06-21T12:34:51.327Z,22.48
2016-06-21T12:35:51.332Z,22.96
2016-06-21T12:36:51.332Z,23.25
2016-06-21T12:37:51.375Z,23.13
2016-06-21T12:38:51.334Z,21.69
2016-06-21T12:39:51.329Z,22.88
2016-06-21T12:40:51.327Z,23.46
2016-06-21T12:41:51.374Z,22.86
2016-06-21T12:42:51.345Z,23.16
2016-06-21T12:43:51.351Z,23.36
2016-06-21T12:44:51.338Z,23.93
2016-06-21T12:45:50.701Z,23.55
2016-06-21T12:46:50.696Z,23.93
2016-06-21T12:47:51.342Z,23.23
2016-06-21T12:48:51.362Z,23.82
2016-06-21T12:49:51.374Z,23.24
2016-06-21T12:50:51.358Z,22.19
2016-06-21T12:51:51.358Z,21.91
2016-06-21T12:52:51.349Z,21.84
2016-06-21T12:53:51.332Z,21.64
2016-06-21T12:54:51.345Z,22.42
2016-06-21T12:55:51.386Z,21.72
2016-06-21T12:56:50.705Z,22.81